createdAt,value
2023-04-09T00:04:17.082Z,21.67
2023-04-09T00:09:18.489Z,20.08
2023-04-09T00:14:19.920Z,20.10
2023-04-09T00:19:21.575Z,21.48
2023-04-09T00:24:22.991Z,22.33
2023-04-09T00:29:24.431Z,21.85
2023-04-09T00:34:26.190Z,21.15
2023-04-09T00:39:27.973Z,22.08
2023-04-09T00:44:29.494Z,19.65
2023-04-09T00:49:30.994Z,20.73
2023-04-09T00:54:32.884Z,21.35
2023-04-09T00:59:34.423Z,23.30
2023-04-09T01:04:36.754Z,21.13
2023-04-09T01:09:43.730Z,21.70
2023-04-09T01:14:51.500Z,22.45
2023-04-09T01:20:10.402Z,21.83
2023-04-09T01:25:33.026Z,23.42
2023-04-09T01:30:36.132Z,23.65
2023-04-09T01:35:37.807Z,20.83
2023-04-09T01:40:39.499Z,22.63
2023-04-09T01:45:42.748Z,21.15
2023-04-09T01:50:44.547Z,21.17
2023-04-09T01:55:46.041Z,22.45
2023-04-09T02:00:49.232Z,21.70
2023-04-09T02:06:15.592Z,21.70
2023-04-09T02:11:17.712Z,22.77
2023-04-09T02:16:20.646Z,22.95
2023-04-09T02:21:23.630Z,22.38
2023-04-09T02:26:25.382Z,20.63
2023-04-09T02:31:27.192Z,21.00
2023-04-09T02:36:28.729Z,22.02
2023-04-09T02:41:30.197Z,20.50
2023-04-09T02:46:31.599Z,21.10
2023-04-09T02:51:36.017Z,19.77
2023-04-09T02:56:37.588Z,20.52
2023-04-09T03:01:39.109Z,18.48
2023-04-09T03:06:40.750Z,22.30
2023-04-09T03:11:42.134Z,20.02
2023-04-09T03:16:43.632Z,20.55
2023-04-09T03:21:46.263Z,21.63
2023-04-09T03:26:47.668Z,20.05
2023-04-09T03:31:49.126Z,20.70
2023-04-09T03:36:50.530Z,20.98
2023-04-09T03:41:52.022Z,20.85
2023-04-09T03:46:53.548Z,21.25
2023-04-09T03:51:54.965Z,23.58
2023-04-09T03:56:57.171Z,24.52
2023-04-09T04:01:58.651Z,24.98
2023-04-09T04:07:00.088Z,24.05
2023-04-09T04:12:02.115Z,23.38
2023-04-09T04:17:03.634Z,25.75
2023-04-09T04:22:05.181Z,25.35
2023-04-09T04:27:06.884Z,24.15
2023-04-09T04:32:08.245Z,24.10
2023-04-09T04:37:09.606Z,28.15
2023-04-09T04:42:11.008Z,24.33
2023-04-09T04:47:12.412Z,23.70
2023-04-09T04:52:15.536Z,21.15
2023-04-09T04:57:18.077Z,21.35
2023-04-09T05:02:19.746Z,20.50
2023-04-09T05:07:21.271Z,22.30
2023-04-09T05:12:22.638Z,18.85
2023-04-09T05:17:24.686Z,22.30
2023-04-09T05:22:26.346Z,19.95
2023-04-09T05:27:28.402Z,20.08
2023-04-09T05:32:29.859Z,18.25
2023-04-09T05:37:31.696Z,19.48
2023-04-09T05:42:33.127Z,18.88
2023-04-09T05:47:34.574Z,18.38
2023-04-09T05:52:35.965Z,17.15
2023-04-09T05:57:37.497Z,19.02
2023-04-09T06:02:39.020Z,19.77
2023-04-09T06:07:40.864Z,21.50
2023-04-09T06:12:42.248Z,17.80
2023-04-09T06:17:43.693Z,18.27
2023-04-09T06:22:45.345Z,18.73
2023-04-09T06:27:46.820Z,20.20
2023-04-09T06:32:54.653Z,19.10
2023-04-09T06:37:56.592Z,20.30
2023-04-09T06:42:58.096Z,19.15
2023-04-09T06:48:00.293Z,21.38
2023-04-09T06:53:02.567Z,20.27
2023-04-09T06:58:04.044Z,19.55
2023-04-09T07:03:07.910Z,20.33
2023-04-09T07:08:09.534Z,19.27
2023-04-09T07:13:11.171Z,20.35
2023-04-09T07:18:12.596Z,20.15
2023-04-09T07:23:14.002Z,18.70
2023-04-09T07:28:15.469Z,19.58
2023-04-09T07:33:16.856Z,19.30
2023-04-09T07:38:18.277Z,18.95
2023-04-09T07:43:21.403Z,19.13
2023-04-09T07:48:24.093Z,19.77
2023-04-09T07:53:25.480Z,19.73
2023-04-09T07:58:26.928Z,18.50
2023-04-09T08:03:28.576Z,19.08
2023-04-09T08:08:30.987Z,18.25
2023-04-09T08:13:32.514Z,18.65
2023-04-09T08:18:33.926Z,17.60
2023-04-09T08:23:35.371Z,16.63
2023-04-09T08:28:37.323Z,17.27
2023-04-09T08:33:38.766Z,18.25
2023-04-09T08:38:40.698Z,16.80
2023-04-09T08:43:57.160Z,18.25
2023-04-09T08:48:59.716Z,17.73
2023-04-09T08:54:04.377Z,16.25
2023-04-09T08:59:06.555Z,17.77
2023-04-09T09:04:09.520Z,15.80
2023-04-09T09:09:15.817Z,15.75
2023-04-09T09:14:19.398Z,15.40
2023-04-09T09:19:26.908Z,14.10
2023-04-09T09:24:28.888Z,14.10
2023-04-09T09:29:30.477Z,14.68
2023-04-09T09:34:32.099Z,15.05
2023-04-09T09:39:44.531Z,14.95
2023-04-09T09:44:46.254Z,15.40
2023-04-09T09:49:49.569Z,15.57
2023-04-09T09:54:52.765Z,14.07
2023-04-09T09:59:59.190Z,13.85
2023-04-09T10:05:01.614Z,13.63
2023-04-09T10:10:05.118Z,14.15
2023-04-09T10:15:07.418Z,13.25
2023-04-09T10:20:26.025Z,13.40
2023-04-09T10:25:28.476Z,13.00
2023-04-09T10:30:36.829Z,13.40
2023-04-09T10:35:38.801Z,13.23
2023-04-09T10:40:42.787Z,13.75
2023-04-09T10:45:44.397Z,12.05
2023-04-09T10:50:45.846Z,12.35
2023-04-09T10:55:52.281Z,13.10
2023-04-09T11:00:54.036Z,11.93
2023-04-09T11:06:07.104Z,8.95
2023-04-09T11:11:08.504Z,10.45
2023-04-09T11:16:11.930Z,10.52
2023-04-09T11:21:31.399Z,11.30
2023-04-09T11:26:36.768Z,10.82
2023-04-09T11:31:38.234Z,9.60
2023-04-09T11:36:40.672Z,9.43
2023-04-09T11:41:42.061Z,9.23
2023-04-09T11:46:44.630Z,10.30
2023-04-09T11:51:46.159Z,9.63
2023-04-09T11:56:55.672Z,8.75
2023-04-09T12:02:00.716Z,7.65
2023-04-09T12:12:08.883Z,6.70
2023-04-09T12:17:10.550Z,6.40
2023-04-09T12:22:11.950Z,5.75
2023-04-09T12:27:13.393Z,7.38
2023-04-09T12:32:14.957Z,8.18
2023-04-09T12:37:16.720Z,8.07
2023-04-09T12:42:18.370Z,7.72
2023-04-09T12:47:19.816Z,9.52
2023-04-09T12:52:22.506Z,9.43
2023-04-09T12:57:24.123Z,8.90
2023-04-09T13:02:25.863Z,9.30
2023-04-09T13:07:29.419Z,9.55
2023-04-09T13:12:30.931Z,9.48
2023-04-09T13:17:32.543Z,11.50
2023-04-09T13:22:34.000Z,10.15
2023-04-09T13:27:35.439Z,10.45
2023-04-09T13:32:37.088Z,9.77
2023-04-09T13:37:38.500Z,9.82
2023-04-09T13:42:40.137Z,9.10
2023-04-09T13:47:42.893Z,8.43
2023-04-09T13:52:44.345Z,8.05
2023-04-09T13:57:45.934Z,9.02
2023-04-09T14:02:47.329Z,9.68
2023-04-09T14:07:48.800Z,8.48
2023-04-09T14:12:50.704Z,8.07
2023-04-09T14:17:52.214Z,8.43
2023-04-09T14:22:53.940Z,7.70
2023-04-09T14:27:55.404Z,8.40
2023-04-09T14:32:56.925Z,8.35
2023-04-09T14:37:58.434Z,8.10
2023-04-09T14:43:00.267Z,8.20
2023-04-09T14:48:01.789Z,8.23
2023-04-09T14:53:04.170Z,8.18
2023-04-09T14:58:07.714Z,7.57
2023-04-09T15:03:09.246Z,8.50
2023-04-09T15:08:10.786Z,7.32
2023-04-09T15:13:12.172Z,7.50
2023-04-09T15:18:13.548Z,8.05
2023-04-09T15:23:14.934Z,9.10
2023-04-09T15:28:16.698Z,13.00
2023-04-09T15:33:18.143Z,13.82
2023-04-09T15:38:21.544Z,11.00
2023-04-09T15:43:23.606Z,7.00
2023-04-09T15:48:25.072Z,12.32
2023-04-09T15:53:28.988Z,7.97
2023-04-09T15:58:30.428Z,8.82
2023-04-09T16:03:36.867Z,6.68
2023-04-09T16:08:39.330Z,7.55
2023-04-09T16:13:40.885Z,7.75
2023-04-09T16:18:42.365Z,7.03
2023-04-09T16:23:43.820Z,7.03
2023-04-09T16:28:45.360Z,7.68
2023-04-09T16:33:46.850Z,7.25
2023-04-09T16:38:48.484Z,7.50
2023-04-09T16:43:51.104Z,7.40
2023-04-09T16:48:52.837Z,7.13
2023-04-09T16:53:54.441Z,6.32
2023-04-09T16:58:55.949Z,6.70
2023-04-09T17:03:57.736Z,6.05
2023-04-09T17:08:59.848Z,6.32
2023-04-09T17:14:01.523Z,6.80
2023-04-09T17:19:02.980Z,7.68
2023-04-09T17:24:04.616Z,14.73
2023-04-09T17:29:06.033Z,8.05
2023-04-09T17:34:08.605Z,6.72
2023-04-09T17:39:10.031Z,7.43
2023-04-09T17:44:11.595Z,6.85
2023-04-09T17:49:13.044Z,7.57
2023-04-09T17:54:14.868Z,6.68
2023-04-09T17:59:16.299Z,7.47
2023-04-09T18:04:18.001Z,8.50
2023-04-09T18:09:19.758Z,8.77
2023-04-09T18:14:21.473Z,10.25
2023-04-09T18:19:22.873Z,8.60
2023-04-09T18:24:26.195Z,10.18
2023-04-09T18:29:29.099Z,9.48
2023-04-09T18:34:30.830Z,14.02
2023-04-09T18:39:34.234Z,14.00
2023-04-09T18:44:38.900Z,12.90
2023-04-09T18:49:40.451Z,15.55
2023-04-09T18:54:42.276Z,18.00
2023-04-09T18:59:45.264Z,14.40
2023-04-09T19:04:46.854Z,11.90
2023-04-09T19:09:48.355Z,8.90
2023-04-09T19:14:49.789Z,6.60
2023-04-09T19:19:51.162Z,5.53
2023-04-09T19:24:52.729Z,6.28
2023-04-09T19:29:54.234Z,6.28
2023-04-09T19:34:55.815Z,6.43
2023-04-09T19:39:58.519Z,6.32
2023-04-09T19:45:00.424Z,6.47
2023-04-09T19:50:01.958Z,6.13
2023-04-09T19:55:04.938Z,6.25
2023-04-09T20:00:08.637Z,5.93
2023-04-09T20:05:10.473Z,7.00
2023-04-09T20:10:12.123Z,6.85
2023-04-09T20:15:13.794Z,8.52
2023-04-09T20:20:19.693Z,7.40
2023-04-09T20:25:21.777Z,5.85
2023-04-09T20:30:23.178Z,6.60
2023-04-09T20:35:24.620Z,7.65
2023-04-09T20:40:26.365Z,10.15
2023-04-09T20:45:27.769Z,13.75
2023-04-09T20:50:31.076Z,12.63
2023-04-09T20:55:32.577Z,8.85
2023-04-09T21:00:34.201Z,6.80
2023-04-09T21:05:35.708Z,9.63
2023-04-09T21:10:37.240Z,9.05
2023-04-09T21:15:38.665Z,9.52
2023-04-09T21:20:45.417Z,19.25
2023-04-09T21:25:46.971Z,19.65
2023-04-09T21:30:48.434Z,19.30
2023-04-09T21:35:53.366Z,19.02
2023-04-09T21:40:54.796Z,19.95
2023-04-09T21:45:57.045Z,19.98
2023-04-09T21:50:58.632Z,20.77
2023-04-09T21:56:00.165Z,18.70
2023-04-09T22:01:02.265Z,17.48
2023-04-09T22:06:03.874Z,14.68
2023-04-09T22:11:05.581Z,19.27
2023-04-09T22:16:08.037Z,13.93
2023-04-09T22:21:13.925Z,21.83
2023-04-09T22:26:15.374Z,21.20
2023-04-09T22:31:16.880Z,19.35
2023-04-09T22:36:18.669Z,19.35
2023-04-09T22:41:20.163Z,20.25
2023-04-09T22:46:22.309Z,20.27
2023-04-09T22:51:24.601Z,19.80
2023-04-09T22:56:26.327Z,18.90
2023-04-09T23:01:28.258Z,17.73
2023-04-09T23:06:30.912Z,17.15
2023-04-09T23:11:32.621Z,17.58
2023-04-09T23:16:34.169Z,17.75
2023-04-09T23:21:35.830Z,17.20
2023-04-09T23:26:37.308Z,16.77
2023-04-09T23:31:38.804Z,15.50
2023-04-09T23:36:40.482Z,16.02
2023-04-09T23:41:41.893Z,14.30
2023-04-09T23:46:43.489Z,15.30
2023-04-09T23:51:44.890Z,15.73
2023-04-09T23:56:46.822Z,14.30
